sensor_id;sensor_type;location;lat;lon;timestamp;pressure;altitude;pressure_sealevel;temperature;humidity
19600;BME280;9947;57.722;12.012;2023-05-23T00:02:02;101065.97;;;15.42;89.33
19600;BME280;9947;57.722;12.012;2023-05-23T00:04:33;101065.41;;;15.39;89.58
19600;BME280;9947;57.722;12.012;2023-05-23T00:07:02;101063.53;;;15.39;90.05
19600;BME280;9947;57.722;12.012;2023-05-23T00:09:35;101052.78;;;15.38;89.69
19600;BME280;9947;57.722;12.012;2023-05-23T00:12:05;101057.94;;;15.41;89.73
19600;BME280;9947;57.722;12.012;2023-05-23T00:14:34;101055.50;;;15.38;89.71
19600;BME280;9947;57.722;12.012;2023-05-23T00:17:02;101044.47;;;15.39;89.44
19600;BME280;9947;57.722;12.012;2023-05-23T00:19:30;101053.50;;;15.40;88.50
19600;BME280;9947;57.722;12.012;2023-05-23T00:22:00;101057.22;;;15.39;88.49
19600;BME280;9947;57.722;12.012;2023-05-23T00:24:32;101052.31;;;15.33;89.11
19600;BME280;9947;57.722;12.012;2023-05-23T00:27:00;101046.16;;;15.31;87.77
19600;BME280;9947;57.722;12.012;2023-05-23T00:29:28;101048.72;;;15.32;88.12
19600;BME280;9947;57.722;12.012;2023-05-23T00:31:56;101049.88;;;15.30;85.43
19600;BME280;9947;57.722;12.012;2023-05-23T00:34:26;101046.44;;;15.28;85.98
19600;BME280;9947;57.722;12.012;2023-05-23T00:37:03;101044.00;;;15.25;85.46
19600;BME280;9947;57.722;12.012;2023-05-23T00:39:33;101044.00;;;15.25;83.61
19600;BME280;9947;57.722;12.012;2023-05-23T00:42:03;101043.84;;;15.26;82.20
19600;BME280;9947;57.722;12.012;2023-05-23T00:44:33;101039.13;;;15.28;80.13
19600;BME280;9947;57.722;12.012;2023-05-23T00:47:00;101042.13;;;15.25;80.38
19600;BME280;9947;57.722;12.012;2023-05-23T00:49:28;101027.81;;;15.23;80.09
19600;BME280;9947;57.722;12.012;2023-05-23T00:51:57;101032.09;;;15.26;78.52
19600;BME280;9947;57.722;12.012;2023-05-23T00:54:29;101019.78;;;15.22;77.59
19600;BME280;9947;57.722;12.012;2023-05-23T00:56:59;101027.50;;;15.26;76.43
19600;BME280;9947;57.722;12.012;2023-05-23T00:59:26;101022.06;;;15.26;75.97
19600;BME280;9947;57.722;12.012;2023-05-23T01:01:56;101016.19;;;15.21;77.53
19600;BME280;9947;57.722;12.012;2023-05-23T01:04:23;101014.31;;;15.22;74.67
19600;BME280;9947;57.722;12.012;2023-05-23T01:06:51;101012.75;;;15.19;74.59
19600;BME280;9947;57.722;12.012;2023-05-23T01:09:19;101013.19;;;15.15;74.55
19600;BME280;9947;57.722;12.012;2023-05-23T01:11:56;101007.00;;;15.13;74.59
19600;BME280;9947;57.722;12.012;2023-05-23T01:14:31;101008.41;;;15.07;74.49
19600;BME280;9947;57.722;12.012;2023-05-23T01:17:07;101016.56;;;14.97;77.49
19600;BME280;9947;57.722;12.012;2023-05-23T01:20:00;101015.53;;;14.89;78.57
19600;BME280;9947;57.722;12.012;2023-05-23T01:23:19;101016.81;;;14.85;77.54
19600;BME280;9947;57.722;12.012;2023-05-23T01:26:06;101021.41;;;14.84;77.85
19600;BME280;9947;57.722;12.012;2023-05-23T01:28:50;101018.34;;;14.77;79.47
19600;BME280;9947;57.722;12.012;2023-05-23T01:31:23;101020.06;;;14.69;81.51
19600;BME280;9947;57.722;12.012;2023-05-23T01:33:57;101022.78;;;14.69;81.39
19600;BME280;9947;57.722;12.012;2023-05-23T01:36:31;101010.16;;;14.68;81.81
19600;BME280;9947;57.722;12.012;2023-05-23T01:39:01;101008.88;;;14.62;84.37
19600;BME280;9947;57.722;12.012;2023-05-23T01:41:34;101015.69;;;14.57;88.08
19600;BME280;9947;57.722;12.012;2023-05-23T01:44:05;101010.25;;;14.57;84.59
19600;BME280;9947;57.722;12.012;2023-05-23T01:46:33;101014.25;;;14.53;87.66
19600;BME280;9947;57.722;12.012;2023-05-23T01:49:05;101008.06;;;14.50;86.63
19600;BME280;9947;57.722;12.012;2023-05-23T01:51:35;101008.75;;;14.43;87.51
19600;BME280;9947;57.722;12.012;2023-05-23T01:54:05;101003.84;;;14.37;89.83
19600;BME280;9947;57.722;12.012;2023-05-23T01:56:37;101000.69;;;14.32;89.76
19600;BME280;9947;57.722;12.012;2023-05-23T01:59:15;100995.34;;;14.30;89.14
19600;BME280;9947;57.722;12.012;2023-05-23T02:01:44;100992.91;;;14.27;88.89
19600;BME280;9947;57.722;12.012;2023-05-23T02:04:12;100997.63;;;14.25;90.65
19600;BME280;9947;57.722;12.012;2023-05-23T02:06:40;100991.84;;;14.18;89.66
19600;BME280;9947;57.722;12.012;2023-05-23T02:09:08;100992.13;;;14.15;90.57
19600;BME280;9947;57.722;12.012;2023-05-23T02:11:35;100978.34;;;14.07;93.17
19600;BME280;9947;57.722;12.012;2023-05-23T02:14:03;100985.31;;;14.00;95.24
19600;BME280;9947;57.722;12.012;2023-05-23T02:16:35;100980.59;;;14.02;92.96
19600;BME280;9947;57.722;12.012;2023-05-23T02:19:02;100972.06;;;14.07;90.83
19600;BME280;9947;57.722;12.012;2023-05-23T02:21:35;100973.16;;;14.04;93.07
19600;BME280;9947;57.722;12.012;2023-05-23T02:24:02;100968.84;;;14.02;93.33
19600;BME280;9947;57.722;12.012;2023-05-23T02:26:32;100963.69;;;13.99;93.46
19600;BME280;9947;57.722;12.012;2023-05-23T02:28:59;100969.13;;;13.99;94.27
19600;BME280;9947;57.722;12.012;2023-05-23T02:31:28;100961.78;;;13.89;94.91
19600;BME280;9947;57.722;12.012;2023-05-23T02:34:01;100959.34;;;13.86;96.42
19600;BME280;9947;57.722;12.012;2023-05-23T02:36:34;100951.47;;;13.83;96.37
19600;BME280;9947;57.722;12.012;2023-05-23T02:39:02;100945.09;;;13.73;99.59
19600;BME280;9947;57.722;12.012;2023-05-23T02:41:30;100939.19;;;13.68;100.00
19600;BME280;9947;57.722;12.012;2023-05-23T02:44:01;100926.16;;;13.62;100.00
19600;BME280;9947;57.722;12.012;2023-05-23T02:46:31;100926.59;;;13.67;100.00
19600;BME280;9947;57.722;12.012;2023-05-23T02:49:02;100921.50;;;13.74;100.00
19600;BME280;9947;57.722;12.012;2023-05-23T02:51:29;100918.38;;;13.78;99.30
19600;BME280;9947;57.722;12.012;2023-05-23T02:53:57;100920.72;;;13.83;98.14
19600;BME280;9947;57.722;12.012;2023-05-23T02:56:26;100912.00;;;13.89;98.81
19600;BME280;9947;57.722;12.012;2023-05-23T02:58:55;100920.16;;;13.89;100.00
19600;BME280;9947;57.722;12.012;2023-05-23T03:04:02;100905.03;;;13.96;100.00
19600;BME280;9947;57.722;12.012;2023-05-23T03:06:35;100899.47;;;13.98;100.00
19600;BME280;9947;57.722;12.012;2023-05-23T03:09:07;100899.38;;;14.09;100.00
19600;BME280;9947;57.722;12.012;2023-05-23T03:11:37;100896.97;;;14.15;100.00
19600;BME280;9947;57.722;12.012;2023-05-23T03:14:05;100898.59;;;14.28;100.00
19600;BME280;9947;57.722;12.012;2023-05-23T03:16:33;100898.28;;;14.21;100.00
19600;BME280;9947;57.722;12.012;2023-05-23T03:19:06;100898.56;;;14.18;99.72
19600;BME280;9947;57.722;12.012;2023-05-23T03:21:37;100897.13;;;14.24;98.94
19600;BME280;9947;57.722;12.012;2023-05-23T03:26:37;100884.72;;;14.31;100.00
19600;BME280;9947;57.722;12.012;2023-05-23T03:29:04;100887.41;;;14.21;100.00
19600;BME280;9947;57.722;12.012;2023-05-23T03:31:39;100879.38;;;14.19;100.00
19600;BME280;9947;57.722;12.012;2023-05-23T03:34:11;100884.38;;;14.14;100.00
19600;BME280;9947;57.722;12.012;2023-05-23T03:36:40;100875.09;;;14.17;100.00
19600;BME280;9947;57.722;12.012;2023-05-23T03:41:36;100875.50;;;14.12;100.00
19600;BME280;9947;57.722;12.012;2023-05-23T03:44:08;100875.38;;;14.14;100.00
19600;BME280;9947;57.722;12.012;2023-05-23T03:46:36;100873.09;;;14.19;100.00
19600;BME280;9947;57.722;12.012;2023-05-23T03:49:04;100873.38;;;14.16;100.00
19600;BME280;9947;57.722;12.012;2023-05-23T03:51:50;100866.19;;;14.05;100.00
19600;BME280;9947;57.722;12.012;2023-05-23T03:54:18;100864.72;;;14.01;98.74
19600;BME280;9947;57.722;12.012;2023-05-23T03:56:48;100862.00;;;14.01;100.00
19600;BME280;9947;57.722;12.012;2023-05-23T03:59:27;100860.47;;;14.08;100.00
19600;BME280;9947;57.722;12.012;2023-05-23T04:02:03;100858.03;;;14.05;100.00
19600;BME280;9947;57.722;12.012;2023-05-23T04:04:40;100852.53;;;13.96;100.00
19600;BME280;9947;57.722;12.012;2023-05-23T04:07:11;100850.94;;;13.93;100.00
19600;BME280;9947;57.722;12.012;2023-05-23T04:09:40;100839.38;;;14.01;100.00
19600;BME280;9947;57.722;12.012;2023-05-23T04:12:11;100836.81;;;13.99;100.00
19600;BME280;9947;57.722;12.012;2023-05-23T04:14:44;100844.09;;;13.99;100.00
19600;BME280;9947;57.722;12.012;2023-05-23T04:17:13;100840.44;;;14.09;100.00
19600;BME280;9947;57.722;12.012;2023-05-23T04:19:40;100849.75;;;14.16;100.00
19600;BME280;9947;57.722;12.012;2023-05-23T04:22:10;100841.63;;;14.26;100.00
19600;BME280;9947;57.722;12.012;2023-05-23T04:24:41;100837.81;;;14.38;100.00
19600;BME280;9947;57.722;12.012;2023-05-23T04:29:36;100835.13;;;14.48;96.08
19600;BME280;9947;57.722;12.012;2023-05-23T04:32:12;100825.16;;;14.58;96.82
19600;BME280;9947;57.722;12.012;2023-05-23T04:34:41;100822.72;;;14.65;96.89
19600;BME280;9947;57.722;12.012;2023-05-23T04:37:10;100822.84;;;14.73;96.01
19600;BME280;9947;57.722;12.012;2023-05-23T04:39:40;100827.72;;;14.79;93.48
19600;BME280;9947;57.722;12.012;2023-05-23T04:42:07;100815.13;;;14.88;92.86
19600;BME280;9947;57.722;12.012;2023-05-23T04:44:34;100816.81;;;15.08;89.11
19600;BME280;9947;57.722;12.012;2023-05-23T04:47:02;100813.50;;;15.24;89.19
19600;BME280;9947;57.722;12.012;2023-05-23T04:49:30;100809.66;;;15.17;91.35
19600;BME280;9947;57.722;12.012;2023-05-23T04:52:00;100805.06;;;15.07;94.27
19600;BME280;9947;57.722;12.012;2023-05-23T04:54:31;100802.09;;;14.91;87.91
19600;BME280;9947;57.722;12.012;2023-05-23T04:56:59;100799.81;;;14.87;89.45
19600;BME280;9947;57.722;12.012;2023-05-23T04:59:30;100794.78;;;14.92;97.28
19600;BME280;9947;57.722;12.012;2023-05-23T05:02:04;100796.47;;;14.83;100.00
19600;BME280;9947;57.722;12.012;2023-05-23T05:04:32;100795.47;;;15.03;100.00
19600;BME280;9947;57.722;12.012;2023-05-23T05:07:00;100787.06;;;14.87;97.51
19600;BME280;9947;57.722;12.012;2023-05-23T05:09:36;100800.66;;;14.58;98.15
19600;BME280;9947;57.722;12.012;2023-05-23T05:12:06;100793.59;;;14.56;89.14
19600;BME280;9947;57.722;12.012;2023-05-23T05:15:02;100792.50;;;14.68;88.87
19600;BME280;9947;57.722;12.012;2023-05-23T05:17:46;100781.72;;;15.05;94.96
19600;BME280;9947;57.722;12.012;2023-05-23T05:20:27;100780.28;;;15.01;88.48
19600;BME280;9947;57.722;12.012;2023-05-23T05:22:57;100790.63;;;14.97;87.36
19600;BME280;9947;57.722;12.012;2023-05-23T05:25:36;100793.16;;;15.08;87.17
19600;BME280;9947;57.722;12.012;2023-05-23T05:28:05;100796.34;;;15.14;91.23
19600;BME280;9947;57.722;12.012;2023-05-23T05:30:33;100798.00;;;15.34;91.87
19600;BME280;9947;57.722;12.012;2023-05-23T05:33:04;100802.94;;;15.11;96.12
19600;BME280;9947;57.722;12.012;2023-05-23T05:35:32;100790.41;;;15.28;95.64
19600;BME280;9947;57.722;12.012;2023-05-23T05:40:50;100794.03;;;15.09;87.78
19600;BME280;9947;57.722;12.012;2023-05-23T05:43:17;100791.03;;;15.12;86.09
19600;BME280;9947;57.722;12.012;2023-05-23T05:45:46;100791.44;;;15.07;89.05
19600;BME280;9947;57.722;12.012;2023-05-23T05:48:15;100783.31;;;14.78;86.85
19600;BME280;9947;57.722;12.012;2023-05-23T05:50:50;100789.06;;;14.85;92.29
19600;BME280;9947;57.722;12.012;2023-05-23T05:53:17;100783.88;;;14.82;91.23
19600;BME280;9947;57.722;12.012;2023-05-23T05:55:46;100785.59;;;14.83;89.35
19600;BME280;9947;57.722;12.012;2023-05-23T05:58:15;100786.06;;;14.88;90.79
19600;BME280;9947;57.722;12.012;2023-05-23T06:00:50;100781.16;;;14.92;96.16
19600;BME280;9947;57.722;12.012;2023-05-23T06:03:18;100777.84;;;15.07;95.30
19600;BME280;9947;57.722;12.012;2023-05-23T06:05:47;100784.75;;;14.82;97.89
19600;BME280;9947;57.722;12.012;2023-05-23T06:08:14;100778.19;;;14.85;98.34
19600;BME280;9947;57.722;12.012;2023-05-23T06:10:41;100782.00;;;14.54;100.00
19600;BME280;9947;57.722;12.012;2023-05-23T06:15:36;100783.16;;;14.51;93.07
19600;BME280;9947;57.722;12.012;2023-05-23T06:18:04;100779.00;;;14.57;96.11
19600;BME280;9947;57.722;12.012;2023-05-23T06:20:35;100777.28;;;14.56;96.24
19600;BME280;9947;57.722;12.012;2023-05-23T06:23:02;100774.56;;;14.56;99.35
19600;BME280;9947;57.722;12.012;2023-05-23T06:25:29;100774.72;;;14.44;100.00
19600;BME280;9947;57.722;12.012;2023-05-23T06:27:57;100772.53;;;14.38;92.74
19600;BME280;9947;57.722;12.012;2023-05-23T06:30:27;100768.09;;;14.37;95.79
19600;BME280;9947;57.722;12.012;2023-05-23T06:33:02;100776.03;;;14.60;96.28
19600;BME280;9947;57.722;12.012;2023-05-23T06:35:37;100775.84;;;14.52;95.54
19600;BME280;9947;57.722;12.012;2023-05-23T06:38:06;100773.59;;;14.66;98.87
19600;BME280;9947;57.722;12.012;2023-05-23T06:40:34;100755.25;;;14.88;94.60
19600;BME280;9947;57.722;12.012;2023-05-23T06:43:05;100754.66;;;14.94;92.62
19600;BME280;9947;57.722;12.012;2023-05-23T06:45:36;100747.78;;;14.99;93.02
19600;BME280;9947;57.722;12.012;2023-05-23T06:48:07;100752.75;;;15.23;89.65
19600;BME280;9947;57.722;12.012;2023-05-23T06:50:36;100744.84;;;15.30;83.71
19600;BME280;9947;57.722;12.012;2023-05-23T06:53:07;100746.53;;;15.31;88.29
19600;BME280;9947;57.722;12.012;2023-05-23T06:55:39;100742.25;;;15.38;86.60
19600;BME280;9947;57.722;12.012;2023-05-23T06:58:07;100728.19;;;15.33;84.89
19600;BME280;9947;57.722;12.012;2023-05-23T07:00:34;100722.53;;;15.17;87.39
19600;BME280;9947;57.722;12.012;2023-05-23T07:03:12;100718.72;;;14.80;94.47
19600;BME280;9947;57.722;12.012;2023-05-23T07:05:45;100756.38;;;14.95;91.63
19600;BME280;9947;57.722;12.012;2023-05-23T07:08:26;100761.25;;;15.01;88.64
19600;BME280;9947;57.722;12.012;2023-05-23T07:11:02;100758.53;;;15.10;89.67
19600;BME280;9947;57.722;12.012;2023-05-23T07:13:30;100763.41;;;14.97;89.21
19600;BME280;9947;57.722;12.012;2023-05-23T07:15:58;100775.44;;;14.95;90.08
19600;BME280;9947;57.722;12.012;2023-05-23T07:18:28;100780.59;;;14.98;90.87
19600;BME280;9947;57.722;12.012;2023-05-23T07:21:01;100766.94;;;15.07;94.51
19600;BME280;9947;57.722;12.012;2023-05-23T07:23:32;100771.84;;;14.94;93.37
19600;BME280;9947;57.722;12.012;2023-05-23T07:25:59;100778.72;;;14.98;94.62
19600;BME280;9947;57.722;12.012;2023-05-23T07:28:29;100765.41;;;14.95;96.65
19600;BME280;9947;57.722;12.012;2023-05-23T07:30:59;100736.88;;;14.99;100.00
19600;BME280;9947;57.722;12.012;2023-05-23T07:33:29;100743.22;;;14.71;96.37
19600;BME280;9947;57.722;12.012;2023-05-23T07:36:00;100743.19;;;15.00;90.75
19600;BME280;9947;57.722;12.012;2023-05-23T07:38:30;100762.25;;;15.09;89.92
19600;BME280;9947;57.722;12.012;2023-05-23T07:40:58;100772.22;;;15.38;87.90
19600;BME280;9947;57.722;12.012;2023-05-23T07:43:25;100743.97;;;15.39;84.30
19600;BME280;9947;57.722;12.012;2023-05-23T07:45:53;100742.66;;;15.43;89.67
19600;BME280;9947;57.722;12.012;2023-05-23T07:48:22;100756.84;;;15.47;83.97
19600;BME280;9947;57.722;12.012;2023-05-23T07:50:52;100759.09;;;15.61;81.66
19600;BME280;9947;57.722;12.012;2023-05-23T07:53:22;100773.59;;;15.52;77.06
19600;BME280;9947;57.722;12.012;2023-05-23T07:55:54;100782.19;;;15.66;74.44
19600;BME280;9947;57.722;12.012;2023-05-23T07:58:24;100780.28;;;15.77;77.67
19600;BME280;9947;57.722;12.012;2023-05-23T08:00:52;100776.59;;;15.95;75.56
19600;BME280;9947;57.722;12.012;2023-05-23T08:03:21;100772.66;;;16.08;78.70
19600;BME280;9947;57.722;12.012;2023-05-23T08:05:54;100764.78;;;16.04;77.46
19600;BME280;9947;57.722;12.012;2023-05-23T08:08:22;100768.16;;;16.16;76.32
19600;BME280;9947;57.722;12.012;2023-05-23T08:10:53;100782.28;;;16.29;76.57
19600;BME280;9947;57.722;12.012;2023-05-23T08:13:19;100781.06;;;16.42;74.22
19600;BME280;9947;57.722;12.012;2023-05-23T08:15:51;100774.81;;;16.49;73.10
19600;BME280;9947;57.722;12.012;2023-05-23T08:18:19;100781.13;;;16.32;69.18
19600;BME280;9947;57.722;12.012;2023-05-23T08:20:46;100759.84;;;16.53;76.48
19600;BME280;9947;57.722;12.012;2023-05-23T08:23:15;100765.53;;;16.60;72.90
19600;BME280;9947;57.722;12.012;2023-05-23T08:25:44;100765.00;;;16.11;80.56
19600;BME280;9947;57.722;12.012;2023-05-23T08:28:12;100765.31;;;16.08;81.23
19600;BME280;9947;57.722;12.012;2023-05-23T08:30:40;100765.31;;;15.90;79.27
19600;BME280;9947;57.722;12.012;2023-05-23T08:33:08;100775.63;;;15.87;76.90
19600;BME280;9947;57.722;12.012;2023-05-23T08:35:35;100777.09;;;15.81;80.61
19600;BME280;9947;57.722;12.012;2023-05-23T08:38:04;100770.28;;;16.22;75.44
19600;BME280;9947;57.722;12.012;2023-05-23T08:40:42;100776.06;;;16.55;75.52
19600;BME280;9947;57.722;12.012;2023-05-23T08:43:14;100771.00;;;16.42;71.56
19600;BME280;9947;57.722;12.012;2023-05-23T08:45:50;100763.75;;;16.51;75.47
19600;BME280;9947;57.722;12.012;2023-05-23T08:48:19;100751.84;;;16.87;71.58
19600;BME280;9947;57.722;12.012;2023-05-23T08:50:47;100746.56;;;17.12;68.33
19600;BME280;9947;57.722;12.012;2023-05-23T08:53:15;100737.16;;;17.32;67.96
19600;BME280;9947;57.722;12.012;2023-05-23T08:55:49;100744.59;;;17.22;63.34
19600;BME280;9947;57.722;12.012;2023-05-23T08:58:19;100750.69;;;17.42;65.11
19600;BME280;9947;57.722;12.012;2023-05-23T09:00:47;100747.66;;;18.13;64.87
19600;BME280;9947;57.722;12.012;2023-05-23T09:03:18;100753.28;;;18.11;61.40
19600;BME280;9947;57.722;12.012;2023-05-23T09:05:48;100755.09;;;17.95;61.02
19600;BME280;9947;57.722;12.012;2023-05-23T09:08:17;100752.16;;;17.88;64.37
19600;BME280;9947;57.722;12.012;2023-05-23T09:10:44;100753.84;;;17.81;64.87
19600;BME280;9947;57.722;12.012;2023-05-23T09:13:23;100753.00;;;18.31;62.13
19600;BME280;9947;57.722;12.012;2023-05-23T09:16:00;100750.41;;;18.21;61.65
19600;BME280;9947;57.722;12.012;2023-05-23T09:18:33;100743.78;;;18.32;60.17
19600;BME280;9947;57.722;12.012;2023-05-23T09:21:03;100745.53;;;18.49;55.58
19600;BME280;9947;57.722;12.012;2023-05-23T09:23:32;100743.16;;;18.70;55.49
19600;BME280;9947;57.722;12.012;2023-05-23T09:26:04;100741.94;;;18.57;60.68
19600;BME280;9947;57.722;12.012;2023-05-23T09:28:35;100737.03;;;18.76;59.85
19600;BME280;9947;57.722;12.012;2023-05-23T09:31:05;100741.25;;;18.55;54.86
19600;BME280;9947;57.722;12.012;2023-05-23T09:33:39;100736.00;;;18.77;55.76
19600;BME280;9947;57.722;12.012;2023-05-23T09:36:06;100741.97;;;18.97;55.02
19600;BME280;9947;57.722;12.012;2023-05-23T09:38:38;100733.56;;;19.15;57.12
19600;BME280;9947;57.722;12.012;2023-05-23T09:41:08;100730.66;;;19.17;59.04
19600;BME280;9947;57.722;12.012;2023-05-23T09:43:39;100739.56;;;19.19;59.27
19600;BME280;9947;57.722;12.012;2023-05-23T09:46:09;100735.63;;;19.13;57.16
19600;BME280;9947;57.722;12.012;2023-05-23T09:48:45;100740.09;;;19.06;54.93
19600;BME280;9947;57.722;12.012;2023-05-23T09:51:13;100741.47;;;19.10;57.88
19600;BME280;9947;57.722;12.012;2023-05-23T09:53:44;100743.84;;;19.13;56.61
19600;BME280;9947;57.722;12.012;2023-05-23T09:56:12;100750.19;;;19.14;56.65
19600;BME280;9947;57.722;12.012;2023-05-23T09:58:46;100746.25;;;18.92;54.42
19600;BME280;9947;57.722;12.012;2023-05-23T10:01:14;100749.66;;;19.18;54.81
19600;BME280;9947;57.722;12.012;2023-05-23T10:03:44;100750.00;;;19.23;53.30
19600;BME280;9947;57.722;12.012;2023-05-23T10:06:21;100751.22;;;19.29;52.36
19600;BME280;9947;57.722;12.012;2023-05-23T10:08:54;100752.59;;;18.92;55.18
19600;BME280;9947;57.722;12.012;2023-05-23T10:12:12;100754.31;;;18.85;60.48
19600;BME280;9947;57.722;12.012;2023-05-23T10:15:01;100750.53;;;18.86;65.70
19600;BME280;9947;57.722;12.012;2023-05-23T10:17:35;100750.44;;;18.37;57.84
19600;BME280;9947;57.722;12.012;2023-05-23T10:20:10;100735.97;;;18.69;60.39
19600;BME280;9947;57.722;12.012;2023-05-23T10:22:39;100733.75;;;18.65;62.73
19600;BME280;9947;57.722;12.012;2023-05-23T10:25:08;100738.72;;;18.69;67.75
19600;BME280;9947;57.722;12.012;2023-05-23T10:27:35;100738.56;;;18.87;70.03
19600;BME280;9947;57.722;12.012;2023-05-23T10:30:09;100737.28;;;18.41;74.61
19600;BME280;9947;57.722;12.012;2023-05-23T10:32:39;100740.22;;;17.89;76.85
19600;BME280;9947;57.722;12.012;2023-05-23T10:35:16;100754.19;;;17.52;82.14
19600;BME280;9947;57.722;12.012;2023-05-23T10:37:49;100766.38;;;17.14;75.46
19600;BME280;9947;57.722;12.012;2023-05-23T10:43:12;100769.22;;;16.86;77.14
19600;BME280;9947;57.722;12.012;2023-05-23T10:46:03;100769.69;;;17.00;85.38
19600;BME280;9947;57.722;12.012;2023-05-23T10:48:40;100783.38;;;16.37;89.51
19600;BME280;9947;57.722;12.012;2023-05-23T10:51:15;100797.22;;;15.70;100.00
19600;BME280;9947;57.722;12.012;2023-05-23T10:53:45;100804.72;;;15.49;100.00
19600;BME280;9947;57.722;12.012;2023-05-23T10:56:18;100801.13;;;15.49;100.00
19600;BME280;9947;57.722;12.012;2023-05-23T10:58:51;100801.28;;;15.47;100.00
19600;BME280;9947;57.722;12.012;2023-05-23T11:01:22;100797.13;;;15.43;100.00
19600;BME280;9947;57.722;12.012;2023-05-23T11:03:51;100780.78;;;15.43;100.00
19600;BME280;9947;57.722;12.012;2023-05-23T11:06:28;100772.72;;;14.95;100.00
19600;BME280;9947;57.722;12.012;2023-05-23T11:09:04;100768.72;;;14.70;100.00
19600;BME280;9947;57.722;12.012;2023-05-23T11:12:10;100763.84;;;14.64;100.00
19600;BME280;9947;57.722;12.012;2023-05-23T11:14:55;100760.41;;;14.71;100.00
19600;BME280;9947;57.722;12.012;2023-05-23T11:17:49;100770.28;;;14.63;100.00
19600;BME280;9947;57.722;12.012;2023-05-23T11:20:23;100765.41;;;14.47;100.00
19600;BME280;9947;57.722;12.012;2023-05-23T11:22:59;100763.72;;;14.65;100.00
19600;BME280;9947;57.722;12.012;2023-05-23T11:25:52;100770.16;;;14.64;100.00
19600;BME280;9947;57.722;12.012;2023-05-23T11:28:27;100771.16;;;14.73;100.00
19600;BME280;9947;57.722;12.012;2023-05-23T11:30:56;100773.44;;;14.58;100.00
19600;BME280;9947;57.722;12.012;2023-05-23T11:33:42;100774.00;;;14.52;100.00
19600;BME280;9947;57.722;12.012;2023-05-23T11:36:30;100769.13;;;14.56;100.00
19600;BME280;9947;57.722;12.012;2023-05-23T11:39:21;100778.72;;;14.50;100.00
19600;BME280;9947;57.722;12.012;2023-05-23T11:41:58;100771.00;;;14.45;100.00
19600;BME280;9947;57.722;12.012;2023-05-23T11:44:27;100777.94;;;14.29;100.00
19600;BME280;9947;57.722;12.012;2023-05-23T11:47:00;100781.34;;;14.11;100.00
19600;BME280;9947;57.722;12.012;2023-05-23T11:49:35;100783.50;;;14.27;100.00
19600;BME280;9947;57.722;12.012;2023-05-23T11:52:05;100780.50;;;14.30;100.00
19600;BME280;9947;57.722;12.012;2023-05-23T11:54:42;100785.59;;;14.44;100.00
19600;BME280;9947;57.722;12.012;2023-05-23T11:57:13;100780.50;;;14.30;100.00
19600;BME280;9947;57.722;12.012;2023-05-23T11:59:50;100788.97;;;14.27;100.00
19600;BME280;9947;57.722;12.012;2023-05-23T12:02:37;100785.94;;;14.30;100.00
19600;BME280;9947;57.722;12.012;2023-05-23T12:05:32;100788.41;;;14.33;100.00
19600;BME280;9947;57.722;12.012;2023-05-23T12:08:24;100788.81;;;14.19;100.00
19600;BME280;9947;57.722;12.012;2023-05-23T12:10:54;100801.31;;;14.31;100.00
19600;BME280;9947;57.722;12.012;2023-05-23T12:13:27;100794.41;;;14.27;100.00
19600;BME280;9947;57.722;12.012;2023-05-23T12:16:12;100800.97;;;14.25;100.00
19600;BME280;9947;57.722;12.012;2023-05-23T12:18:54;100804.56;;;14.25;100.00
19600;BME280;9947;57.722;12.012;2023-05-23T12:21:52;100799.69;;;14.19;100.00
19600;BME280;9947;57.722;12.012;2023-05-23T12:24:21;100800.97;;;14.25;100.00
19600;BME280;9947;57.722;12.012;2023-05-23T12:26:50;100805.25;;;14.17;100.00
19600;BME280;9947;57.722;12.012;2023-05-23T12:29:35;100804.13;;;14.20;100.00
19600;BME280;9947;57.722;12.012;2023-05-23T12:32:25;100800.41;;;14.21;100.00
19600;BME280;9947;57.722;12.012;2023-05-23T12:35:08;100793.25;;;14.20;100.00
19600;BME280;9947;57.722;12.012;2023-05-23T12:37:43;100807.13;;;14.17;100.00
19600;BME280;9947;57.722;12.012;2023-05-23T12:40:24;100800.81;;;14.16;100.00
19600;BME280;9947;57.722;12.012;2023-05-23T12:43:00;100788.09;;;14.27;100.00
19600;BME280;9947;57.722;12.012;2023-05-23T12:45:45;100779.81;;;14.28;100.00
19600;BME280;9947;57.722;12.012;2023-05-23T12:48:30;100787.25;;;14.26;100.00
19600;BME280;9947;57.722;12.012;2023-05-23T12:50:59;100782.38;;;14.20;100.00
19600;BME280;9947;57.722;12.012;2023-05-23T12:53:43;100787.50;;;14.13;100.00
19600;BME280;9947;57.722;12.012;2023-05-23T12:56:28;100789.03;;;13.97;100.00
19600;BME280;9947;57.722;12.012;2023-05-23T12:58:57;100788.03;;;13.98;100.00
19600;BME280;9947;57.722;12.012;2023-05-23T13:01:26;100790.19;;;14.04;100.00
19600;BME280;9947;57.722;12.012;2023-05-23T13:04:07;100792.03;;;14.03;100.00
19600;BME280;9947;57.722;12.012;2023-05-23T13:06:44;100783.59;;;13.97;100.00
19600;BME280;9947;57.722;12.012;2023-05-23T13:09:33;100779.00;;;13.97;100.00
19600;BME280;9947;57.722;12.012;2023-05-23T13:12:07;100779.44;;;13.93;100.00
19600;BME280;9947;57.722;12.012;2023-05-23T13:14:42;100781.66;;;13.78;100.00
19600;BME280;9947;57.722;12.012;2023-05-23T13:17:15;100786.28;;;13.87;100.00
19600;BME280;9947;57.722;12.012;2023-05-23T13:19:45;100784.38;;;14.18;100.00
19600;BME280;9947;57.722;12.012;2023-05-23T13:22:17;100779.09;;;14.26;100.00
19600;BME280;9947;57.722;12.012;2023-05-23T13:24:47;100786.59;;;14.03;100.00
19600;BME280;9947;57.722;12.012;2023-05-23T13:27:20;100786.25;;;14.27;100.00
19600;BME280;9947;57.722;12.012;2023-05-23T13:29:48;100789.81;;;14.28;100.00
19600;BME280;9947;57.722;12.012;2023-05-23T13:32:26;100794.19;;;14.00;100.00
19600;BME280;9947;57.722;12.012;2023-05-23T13:34:57;100795.66;;;14.13;100.00